Time;durP1;ratioP1;P1;durP2;ratioP2;P2;SDS_P1;SDS_P2;PMS_P1;PMS_P2;Temp;Humidity;BMP_temperature;BMP_pressure;BME280_temperature;BME280_humidity;BME280_pressure;Samples;Min_cycle;Max_cycle;Signal;HPM_P1;HPM_P2
2022/07/11 00:01:52;;;;;;;4.93;1.17;;;;;;;;;;4913412;29;20052;-67
2022/07/11 00:04:21;;;;;;;5.97;1.25;;;;;;;;;;4907089;29;20060;-67
2022/07/11 00:06:47;;;;;;;4.70;1.33;;;;;;;;;;4911847;29;20056;-67
2022/07/11 00:09:14;;;;;;;6.75;1.92;;;;;;;;;;4912115;29;20052;-67
2022/07/11 00:11:41;;;;;;;3.58;1.08;;;;;;;;;;4906925;29;20056;-67
2022/07/11 00:14:08;;;;;;;6.03;1.60;;;;;;;;;;4912364;29;20056;-67
2022/07/11 00:16:35;;;;;;;3.42;1.17;;;;;;;;;;4906663;29;20056;-67
2022/07/11 00:19:01;;;;;;;6.35;1.60;;;;;;;;;;4912443;29;20067;-67
2022/07/11 00:21:30;;;;;;;2.80;1.02;;;;;;;;;;4906144;29;20052;-67
2022/07/11 00:23:56;;;;;;;7.00;1.42;;;;;;;;;;4912029;29;20123;-67
2022/07/11 00:26:23;;;;;;;3.78;1.33;;;;;;;;;;4906681;29;20051;-67
2022/07/11 00:28:49;;;;;;;5.75;1.48;;;;;;;;;;4911933;29;20116;-67
2022/07/11 00:31:16;;;;;;;3.22;1.35;;;;;;;;;;4908020;29;20048;-65
2022/07/11 00:33:43;;;;;;;11.10;2.05;;;;;;;;;;4912134;29;20059;-65
2022/07/11 00:36:09;;;;;;;5.60;1.45;;;;;;;;;;4906242;29;20044;-65
2022/07/11 00:38:37;;;;;;;4.07;1.30;;;;;;;;;;4911061;29;20052;-65
2022/07/11 00:41:04;;;;;;;9.10;1.90;;;;;;;;;;4906635;29;20562;-65
2022/07/11 00:43:31;;;;;;;5.18;1.52;;;;;;;;;;4910851;29;20064;-65
2022/07/11 00:45:57;;;;;;;3.72;1.13;;;;;;;;;;4905831;29;20052;-64
2022/07/11 00:48:24;;;;;;;2.83;1.10;;;;;;;;;;4911842;29;20124;-64
2022/07/11 00:50:51;;;;;;;1.88;1.00;;;;;;;;;;4911513;29;20088;-64
2022/07/11 00:53:18;;;;;;;6.13;1.13;;;;;;;;;;4906193;29;20043;-65
2022/07/11 00:55:46;;;;;;;3.17;1.15;;;;;;;;;;4911272;29;20071;-65
2022/07/11 00:58:13;;;;;;;4.85;1.20;;;;;;;;;;4906408;29;20082;-65
2022/07/11 01:00:39;;;;;;;4.50;1.40;;;;;;;;;;4911964;29;20135;-65
2022/07/11 01:03:06;;;;;;;4.15;1.45;;;;;;;;;;4909610;29;20084;-65
2022/07/11 01:05:32;;;;;;;2.88;1.20;;;;;;;;;;4915351;29;20060;-65
2022/07/11 01:07:59;;;;;;;2.05;1.00;;;;;;;;;;4910276;29;20060;-65
2022/07/11 01:10:25;;;;;;;5.03;1.20;;;;;;;;;;4915684;29;20056;-64
2022/07/11 01:12:53;;;;;;;2.40;0.95;;;;;;;;;;4910889;29;20052;-64
2022/07/11 01:15:20;;;;;;;3.65;1.00;;;;;;;;;;4914796;29;20066;-65
2022/07/11 01:17:47;;;;;;;1.88;0.80;;;;;;;;;;4910227;29;20051;-65
2022/07/11 01:20:19;;;;;;;3.85;1.05;;;;;;;;;;4916468;29;20059;-64
2022/07/11 01:22:49;;;;;;;3.45;1.15;;;;;;;;;;4910305;29;20040;-64
2022/07/11 01:25:29;;;;;;;6.85;1.48;;;;;;;;;;4914804;29;20115;-64
2022/07/11 01:27:56;;;;;;;2.63;1.05;;;;;;;;;;4909429;29;20063;-65
2022/07/11 01:30:25;;;;;;;3.10;1.30;;;;;;;;;;4914426;29;20084;-64
2022/07/11 01:32:52;;;;;;;3.53;0.98;;;;;;;;;;4910344;29;20063;-64
2022/07/11 01:35:19;;;;;;;7.13;1.27;;;;;;;;;;4914562;29;20111;-64
2022/07/11 01:37:45;;;;;;;6.78;1.40;;;;;;;;;;4915155;29;20040;-64
2022/07/11 01:40:12;;;;;;;3.08;1.00;;;;;;;;;;4909532;29;20134;-65
2022/07/11 01:42:40;;;;;;;7.63;1.50;;;;;;;;;;4914840;29;20087;-65
2022/07/11 01:45:07;;;;;;;3.47;1.00;;;;;;;;;;4909658;29;20060;-65
2022/07/11 01:47:33;;;;;;;6.78;1.40;;;;;;;;;;4913188;29;20059;-64
2022/07/11 01:50:00;;;;;;;3.92;1.00;;;;;;;;;;4915324;29;20163;-64
2022/07/11 01:52:27;;;;;;;7.63;1.35;;;;;;;;;;4914163;29;20054;-65
2022/07/11 01:54:54;;;;;;;4.97;1.98;;;;;;;;;;4908935;29;20062;-64
2022/07/11 01:57:20;;;;;;;3.67;1.38;;;;;;;;;;4914435;29;20060;-64
2022/07/11 01:59:49;;;;;;;5.28;1.48;;;;;;;;;;4909823;29;20059;-64
2022/07/11 02:02:15;;;;;;;4.82;1.20;;;;;;;;;;4915065;29;20136;-65
2022/07/11 02:04:42;;;;;;;8.00;1.52;;;;;;;;;;4908969;29;20056;-65
2022/07/11 02:07:11;;;;;;;5.55;1.38;;;;;;;;;;4913905;29;20056;-64
2022/07/11 02:09:37;;;;;;;3.22;1.17;;;;;;;;;;4909911;29;20048;-64
2022/07/11 02:12:04;;;;;;;4.57;1.30;;;;;;;;;;4914452;29;20124;-64
2022/07/11 02:14:31;;;;;;;2.53;0.98;;;;;;;;;;4908999;29;20060;-64
2022/07/11 02:16:59;;;;;;;5.07;1.55;;;;;;;;;;4914129;29;20056;-64
2022/07/11 02:19:26;;;;;;;1.98;0.95;;;;;;;;;;4913928;29;20056;-65
2022/07/11 02:21:53;;;;;;;6.63;1.60;;;;;;;;;;4911351;29;20059;-64
2022/07/11 02:24:19;;;;;;;5.55;1.52;;;;;;;;;;4917037;29;20094;-64
2022/07/11 02:26:46;;;;;;;8.13;1.33;;;;;;;;;;4893560;29;20067;-64
2022/07/11 02:29:12;;;;;;;4.32;1.20;;;;;;;;;;4894218;29;20057;-64
2022/07/11 02:31:39;;;;;;;3.55;1.08;;;;;;;;;;4903396;29;20052;-64
2022/07/11 02:34:07;;;;;;;4.35;1.25;;;;;;;;;;4913314;29;20068;-65
2022/07/11 02:36:33;;;;;;;6.20;1.40;;;;;;;;;;4908768;29;20056;-64
2022/07/11 02:39:00;;;;;;;5.93;1.33;;;;;;;;;;4913302;29;20051;-65
2022/07/11 02:41:29;;;;;;;4.75;1.40;;;;;;;;;;4908517;29;20067;-64
2022/07/11 02:43:55;;;;;;;6.18;1.27;;;;;;;;;;4912935;29;20067;-64
2022/07/11 02:46:22;;;;;;;8.45;1.50;;;;;;;;;;4908239;29;20111;-65
2022/07/11 02:48:49;;;;;;;3.60;1.10;;;;;;;;;;4913636;29;20063;-64
2022/07/11 02:51:17;;;;;;;4.13;0.93;;;;;;;;;;4908478;29;20052;-64
2022/07/11 02:53:44;;;;;;;3.13;0.80;;;;;;;;;;4921553;29;20064;-64
2022/07/11 02:56:13;;;;;;;2.17;0.90;;;;;;;;;;4927020;28;20058;-64
2022/07/11 02:58:39;;;;;;;4.47;1.30;;;;;;;;;;4913228;29;20056;-64
2022/07/11 03:01:06;;;;;;;1.27;0.77;;;;;;;;;;4909847;29;20052;-63
2022/07/11 03:03:32;;;;;;;4.18;1.15;;;;;;;;;;4912062;29;20146;-64
2022/07/11 03:05:59;;;;;;;3.13;0.77;;;;;;;;;;4913123;29;20062;-64
2022/07/11 03:08:27;;;;;;;3.60;0.98;;;;;;;;;;4907996;29;20067;-64
2022/07/11 03:10:54;;;;;;;6.60;0.90;;;;;;;;;;4929055;29;20056;-65
2022/07/11 03:13:20;;;;;;;2.42;1.02;;;;;;;;;;4908285;29;20056;-64
2022/07/11 03:15:47;;;;;;;5.30;0.77;;;;;;;;;;4912914;29;20529;-64
2022/07/11 03:18:13;;;;;;;1.45;0.80;;;;;;;;;;4907458;29;20063;-64
2022/07/11 03:20:40;;;;;;;4.50;0.80;;;;;;;;;;4912804;29;20052;-64
2022/07/11 03:23:07;;;;;;;3.63;1.13;;;;;;;;;;4907523;29;20111;-64
2022/07/11 03:25:35;;;;;;;4.57;1.10;;;;;;;;;;4929005;29;20127;-64
2022/07/11 03:28:01;;;;;;;1.98;0.85;;;;;;;;;;4925664;29;20062;-64
2022/07/11 03:30:28;;;;;;;0.60;0.57;;;;;;;;;;4926374;29;20048;-64
2022/07/11 03:32:54;;;;;;;2.70;0.80;;;;;;;;;;4907503;29;20055;-64
2022/07/11 03:38:05;;;;;;;2.80;0.82;;;;;;;;;;4923712;29;20063;-64
2022/07/11 03:40:31;;;;;;;3.58;0.75;;;;;;;;;;4931953;29;20055;-64
2022/07/11 03:42:59;;;;;;;7.07;0.95;;;;;;;;;;4924331;29;20047;-64
2022/07/11 03:45:27;;;;;;;2.88;0.90;;;;;;;;;;4912434;29;20063;-64
2022/07/11 03:47:54;;;;;;;1.63;0.75;;;;;;;;;;4910597;29;20080;-64
2022/07/11 03:50:20;;;;;;;2.08;0.80;;;;;;;;;;4928445;29;20055;-64
2022/07/11 03:52:47;;;;;;;2.47;0.77;;;;;;;;;;4929889;29;20059;-64
2022/07/11 03:55:13;;;;;;;0.68;0.60;;;;;;;;;;4908055;29;20086;-64
2022/07/11 03:57:40;;;;;;;1.65;0.77;;;;;;;;;;4912913;29;20154;-64
2022/07/11 04:00:09;;;;;;;1.40;0.70;;;;;;;;;;4920624;29;20067;-64
2022/07/11 04:02:36;;;;;;;2.78;0.82;;;;;;;;;;4930981;29;20066;-64
2022/07/11 04:05:03;;;;;;;2.45;0.60;;;;;;;;;;4925834;29;20059;-64
2022/07/11 04:07:29;;;;;;;3.13;0.90;;;;;;;;;;4930824;29;20139;-63
2022/07/11 04:09:56;;;;;;;0.88;0.50;;;;;;;;;;4916460;29;20056;-64
2022/07/11 04:12:23;;;;;;;5.32;1.13;;;;;;;;;;4912352;29;20074;-64
2022/07/11 04:14:51;;;;;;;1.13;0.70;;;;;;;;;;4913210;29;20083;-64
2022/07/11 04:17:19;;;;;;;1.23;0.70;;;;;;;;;;4929848;29;20311;-64
2022/07/11 04:19:46;;;;;;;2.65;0.80;;;;;;;;;;4919852;29;20048;-63
2022/07/11 04:22:13;;;;;;;3.67;1.13;;;;;;;;;;4901515;29;20061;-64
2022/07/11 04:24:40;;;;;;;1.58;0.60;;;;;;;;;;4890395;29;20135;-64
2022/07/11 04:27:06;;;;;;;2.78;0.85;;;;;;;;;;4913298;29;20064;-64
2022/07/11 04:29:33;;;;;;;3.13;0.98;;;;;;;;;;4907481;29;20059;-64
2022/07/11 04:31:59;;;;;;;1.90;1.02;;;;;;;;;;4910766;29;20059;-64
2022/07/11 04:34:27;;;;;;;1.73;0.80;;;;;;;;;;4911868;29;20064;-64
2022/07/11 04:36:54;;;;;;;1.38;0.75;;;;;;;;;;4906634;29;20108;-64
2022/07/11 04:39:21;;;;;;;6.60;1.10;;;;;;;;;;4911071;29;20056;-64
2022/07/11 04:41:47;;;;;;;1.25;0.80;;;;;;;;;;4906778;29;20156;-64
2022/07/11 04:44:14;;;;;;;3.20;1.13;;;;;;;;;;4911666;29;20056;-63
2022/07/11 04:46:40;;;;;;;2.50;0.93;;;;;;;;;;4905141;29;20056;-64
2022/07/11 04:49:07;;;;;;;5.68;2.20;;;;;;;;;;4911797;29;20059;-64
2022/07/11 04:51:36;;;;;;;6.10;2.55;;;;;;;;;;4906004;29;20063;-63
2022/07/11 04:54:03;;;;;;;3.03;0.93;;;;;;;;;;4907806;29;20056;-63
2022/07/11 04:56:29;;;;;;;3.10;1.30;;;;;;;;;;4902373;29;20064;-63
2022/07/11 04:58:56;;;;;;;3.90;1.25;;;;;;;;;;4901726;29;20045;-63
2022/07/11 05:01:23;;;;;;;1.70;0.88;;;;;;;;;;4901617;29;20064;-63
2022/07/11 05:03:49;;;;;;;3.28;1.00;;;;;;;;;;4901054;29;20059;-63
2022/07/11 05:06:16;;;;;;;5.88;1.25;;;;;;;;;;4889482;29;20077;-63
2022/07/11 05:08:45;;;;;;;5.10;1.40;;;;;;;;;;4884705;29;20057;-63
2022/07/11 05:11:12;;;;;;;3.33;1.45;;;;;;;;;;4895710;29;20063;-63
2022/07/11 05:13:39;;;;;;;4.63;1.52;;;;;;;;;;4899317;29;20107;-63
2022/07/11 05:16:06;;;;;;;5.75;1.88;;;;;;;;;;4904621;29;20203;-63
2022/07/11 05:18:32;;;;;;;2.60;1.33;;;;;;;;;;4901091;29;20138;-63
2022/07/11 05:21:00;;;;;;;2.85;0.90;;;;;;;;;;4905776;29;20060;-63
2022/07/11 05:23:27;;;;;;;3.70;1.35;;;;;;;;;;4886475;29;20064;-63
2022/07/11 05:25:55;;;;;;;3.50;1.35;;;;;;;;;;4894299;29;20056;-63
2022/07/11 05:28:21;;;;;;;4.65;1.50;;;;;;;;;;4894445;29;20053;-62
2022/07/11 05:30:48;;;;;;;4.68;1.23;;;;;;;;;;4892603;29;20060;-63
2022/07/11 05:33:15;;;;;;;2.47;1.17;;;;;;;;;;4910824;29;20075;-63
2022/07/11 05:35:41;;;;;;;2.22;1.08;;;;;;;;;;4900825;29;20064;-63
2022/07/11 05:38:08;;;;;;;8.73;2.30;;;;;;;;;;4898862;29;20048;-63
2022/07/11 05:40:35;;;;;;;4.43;1.50;;;;;;;;;;4930741;29;20052;-64
2022/07/11 05:43:03;;;;;;;2.00;1.08;;;;;;;;;;4895833;29;20075;-63
2022/07/11 05:45:30;;;;;;;7.55;1.50;;;;;;;;;;4890068;29;20071;-63
2022/07/11 05:47:56;;;;;;;4.43;1.48;;;;;;;;;;4891166;29;20131;-63
2022/07/11 05:50:23;;;;;;;2.55;1.17;;;;;;;;;;4930287;29;20068;-64
2022/07/11 05:52:49;;;;;;;4.63;1.73;;;;;;;;;;4927370;29;20052;-64
2022/07/11 05:55:16;;;;;;;4.32;1.77;;;;;;;;;;4917266;29;20051;-63
2022/07/11 05:57:42;;;;;;;5.30;1.35;;;;;;;;;;4903855;29;20055;-63
2022/07/11 06:00:11;;;;;;;4.57;1.70;;;;;;;;;;4929952;29;20084;-64
2022/07/11 06:02:38;;;;;;;4.30;1.58;;;;;;;;;;4923649;29;20067;-63
2022/07/11 06:05:05;;;;;;;1.80;1.20;;;;;;;;;;4898583;29;20060;-63
2022/07/11 06:10:17;;;;;;;7.28;1.75;;;;;;;;;;4895622;29;20063;-63
2022/07/11 06:12:43;;;;;;;2.63;1.00;;;;;;;;;;4898804;29;20044;-64
2022/07/11 06:15:12;;;;;;;2.83;1.52;;;;;;;;;;4894981;29;20139;-64
2022/07/11 06:17:38;;;;;;;9.05;1.90;;;;;;;;;;4928377;29;20146;-64
2022/07/11 06:20:05;;;;;;;4.10;1.58;;;;;;;;;;4927932;29;20044;-64
2022/07/11 06:22:32;;;;;;;4.20;0.95;;;;;;;;;;4914907;29;20135;-63
2022/07/11 06:24:58;;;;;;;2.40;1.05;;;;;;;;;;4899926;29;20056;-63
2022/07/11 06:27:25;;;;;;;1.90;1.00;;;;;;;;;;4917923;29;20052;-63
2022/07/11 06:29:53;;;;;;;3.72;1.25;;;;;;;;;;4910875;29;20069;-63
2022/07/11 06:32:20;;;;;;;1.77;0.98;;;;;;;;;;4916712;29;20060;-63
2022/07/11 06:34:47;;;;;;;1.42;0.95;;;;;;;;;;4911174;29;20547;-63
2022/07/11 06:37:14;;;;;;;1.90;0.95;;;;;;;;;;4917168;29;20074;-63
2022/07/11 06:39:40;;;;;;;2.22;1.08;;;;;;;;;;4914524;29;20059;-63
2022/07/11 06:42:07;;;;;;;1.77;0.90;;;;;;;;;;4913952;29;20056;-63
2022/07/11 06:44:34;;;;;;;2.03;0.90;;;;;;;;;;4915754;29;20060;-63
2022/07/11 06:47:00;;;;;;;2.28;1.17;;;;;;;;;;4911200;29;20059;-63
2022/07/11 06:49:28;;;;;;;1.85;0.98;;;;;;;;;;4916610;29;20059;-63
2022/07/11 06:51:55;;;;;;;1.88;1.00;;;;;;;;;;4906351;29;20148;-63
2022/07/11 06:54:21;;;;;;;2.33;1.13;;;;;;;;;;4897153;29;20137;-63
2022/07/11 06:56:48;;;;;;;1.45;1.15;;;;;;;;;;4891651;29;20055;-63
2022/07/11 06:59:14;;;;;;;1.80;0.90;;;;;;;;;;4901909;29;20064;-63
2022/07/11 07:01:42;;;;;;;1.55;1.00;;;;;;;;;;4919033;29;20055;-63
2022/07/11 07:04:09;;;;;;;1.55;0.98;;;;;;;;;;4934393;29;20117;-63
2022/07/11 07:06:37;;;;;;;2.08;0.93;;;;;;;;;;4923043;29;20063;-63
2022/07/11 07:09:04;;;;;;;1.13;0.73;;;;;;;;;;4915744;29;20094;-63
2022/07/11 07:11:31;;;;;;;1.10;0.85;;;;;;;;;;4910876;29;20055;-63
2022/07/11 07:13:57;;;;;;;2.83;0.88;;;;;;;;;;4932065;29;20105;-63
2022/07/11 07:16:24;;;;;;;1.83;0.75;;;;;;;;;;4926255;29;20062;-65
2022/07/11 07:18:51;;;;;;;4.53;0.85;;;;;;;;;;4932570;29;20070;-63
2022/07/11 07:21:18;;;;;;;1.88;0.80;;;;;;;;;;4928671;29;20138;-63
2022/07/11 07:23:46;;;;;;;2.83;0.90;;;;;;;;;;4929978;29;20055;-63
2022/07/11 07:26:12;;;;;;;4.25;0.70;;;;;;;;;;4930868;29;20052;-63
2022/07/11 07:28:39;;;;;;;2.00;0.90;;;;;;;;;;4912109;29;20063;-63
2022/07/11 07:31:07;;;;;;;1.20;0.70;;;;;;;;;;4930575;29;20059;-64
2022/07/11 07:33:34;;;;;;;0.85;0.65;;;;;;;;;;4926766;29;20059;-64
2022/07/11 07:36:00;;;;;;;1.30;0.68;;;;;;;;;;4931482;29;20063;-63
2022/07/11 07:38:27;;;;;;;1.52;0.80;;;;;;;;;;4926264;29;20048;-63
2022/07/11 07:40:56;;;;;;;1.20;0.60;;;;;;;;;;4930909;29;20051;-63
2022/07/11 07:43:22;;;;;;;2.25;0.85;;;;;;;;;;4926324;29;20079;-63
2022/07/11 07:45:50;;;;;;;1.65;0.60;;;;;;;;;;4930517;29;20056;-63
2022/07/11 07:48:17;;;;;;;2.77;1.00;;;;;;;;;;4933069;29;20125;-63
2022/07/11 07:50:43;;;;;;;2.45;0.60;;;;;;;;;;4950193;29;20295;-64
2022/07/11 07:53:10;;;;;;;4.82;0.60;;;;;;;;;;4939890;29;20146;-64
2022/07/11 07:55:36;;;;;;;2.50;0.57;;;;;;;;;;4930830;29;20062;-63
2022/07/11 07:58:04;;;;;;;1.13;0.77;;;;;;;;;;4926415;29;20052;-63
2022/07/11 08:03:28;;;;;;;1.58;0.63;;;;;;;;;;4889773;29;20142;-64
2022/07/11 08:05:55;;;;;;;0.38;0.38;;;;;;;;;;4920127;29;20067;-64
2022/07/11 08:08:21;;;;;;;2.53;0.65;;;;;;;;;;4925774;29;20056;-64
2022/07/11 08:10:48;;;;;;;0.93;0.52;;;;;;;;;;4929679;29;20071;-63
2022/07/11 08:13:16;;;;;;;0.80;0.50;;;;;;;;;;4924360;29;20059;-64
2022/07/11 08:15:43;;;;;;;0.68;0.57;;;;;;;;;;4925980;29;20498;-64
2022/07/11 08:18:09;;;;;;;0.50;0.45;;;;;;;;;;4930138;29;20089;-64
2022/07/11 08:20:37;;;;;;;1.20;0.60;;;;;;;;;;4925023;29;20055;-64
2022/07/11 08:23:04;;;;;;;0.93;0.40;;;;;;;;;;4930159;29;20075;-65
2022/07/11 08:25:31;;;;;;;0.95;0.60;;;;;;;;;;4924339;29;20107;-64
2022/07/11 08:27:57;;;;;;;0.68;0.60;;;;;;;;;;4913291;29;20597;-65
2022/07/11 08:30:26;;;;;;;0.45;0.45;;;;;;;;;;4916587;29;20055;-64
2022/07/11 08:32:52;;;;;;;0.35;0.35;;;;;;;;;;4930348;29;20140;-64
2022/07/11 08:35:19;;;;;;;0.45;0.45;;;;;;;;;;4924465;29;20044;-64
2022/07/11 08:37:46;;;;;;;0.90;0.60;;;;;;;;;;4930237;29;20052;-64
2022/07/11 08:40:12;;;;;;;0.40;0.40;;;;;;;;;;4921857;29;20066;-64
2022/07/11 08:42:41;;;;;;;0.82;0.60;;;;;;;;;;4929555;29;20055;-64
2022/07/11 08:45:08;;;;;;;0.52;0.50;;;;;;;;;;4908115;29;20047;-64
2022/07/11 08:47:36;;;;;;;0.50;0.50;;;;;;;;;;4912993;29;20070;-64
2022/07/11 08:50:04;;;;;;;0.57;0.52;;;;;;;;;;4908102;29;20307;-64
2022/07/11 08:52:31;;;;;;;0.82;0.50;;;;;;;;;;4914402;29;20071;-64
2022/07/11 08:54:58;;;;;;;1.13;0.57;;;;;;;;;;4926770;29;20055;-64
2022/07/11 08:57:24;;;;;;;0.75;0.50;;;;;;;;;;4928133;29;20063;-64
2022/07/11 08:59:55;;;;;;;1.70;0.70;;;;;;;;;;4931369;29;20063;-64
2022/07/11 09:02:21;;;;;;;1.27;0.60;;;;;;;;;;4923552;29;20096;-64
2022/07/11 09:04:59;;;;;;;1.67;0.90;;;;;;;;;;4931947;29;20101;-65
2022/07/11 09:07:26;;;;;;;1.45;0.70;;;;;;;;;;4929276;29;20074;-66
2022/07/11 09:09:53;;;;;;;0.82;0.63;;;;;;;;;;4929452;29;20059;-66
2022/07/11 09:12:19;;;;;;;1.50;0.70;;;;;;;;;;4929468;29;20055;-66
2022/07/11 09:14:47;;;;;;;0.65;0.40;;;;;;;;;;4929472;29;20083;-66
2022/07/11 09:17:13;;;;;;;0.77;0.60;;;;;;;;;;4929286;29;20056;-66
2022/07/11 09:19:41;;;;;;;0.68;0.47;;;;;;;;;;4929621;29;20062;-66
2022/07/11 09:27:43;;;;;;;2.38;0.57;;;;;;;;;;4933914;29;20051;-66
2022/07/11 09:30:23;;;;;;;0.50;0.50;;;;;;;;;;4932734;29;20094;-66
2022/07/11 09:32:54;;;;;;;0.50;0.50;;;;;;;;;;4932859;29;20090;-66
2022/07/11 09:35:21;;;;;;;0.50;0.50;;;;;;;;;;4932632;29;20267;-66
2022/07/11 09:37:49;;;;;;;1.02;0.75;;;;;;;;;;4932667;29;20054;-67
2022/07/11 09:40:17;;;;;;;1.60;0.60;;;;;;;;;;4933171;29;20114;-66
2022/07/11 09:42:48;;;;;;;1.48;0.60;;;;;;;;;;4932897;29;20052;-66
2022/07/11 09:45:17;;;;;;;0.60;0.60;;;;;;;;;;4932011;29;20052;-66
2022/07/11 09:47:44;;;;;;;1.17;0.70;;;;;;;;;;4931420;29;20066;-66
2022/07/11 09:50:11;;;;;;;0.65;0.50;;;;;;;;;;4932603;29;20054;-66
2022/07/11 09:52:37;;;;;;;1.45;0.60;;;;;;;;;;4932484;29;20047;-66
2022/07/11 09:55:07;;;;;;;0.50;0.50;;;;;;;;;;4932519;29;20050;-66
2022/07/11 09:57:33;;;;;;;1.83;0.60;;;;;;;;;;4932298;29;20056;-66
2022/07/11 10:00:00;;;;;;;0.77;0.60;;;;;;;;;;4932427;29;20131;-66
2022/07/11 10:02:27;;;;;;;0.60;0.60;;;;;;;;;;4931814;29;20055;-66
2022/07/11 10:04:54;;;;;;;0.75;0.45;;;;;;;;;;4932592;29;20048;-65
2022/07/11 10:07:21;;;;;;;0.50;0.50;;;;;;;;;;4932329;29;20075;-66
2022/07/11 10:09:47;;;;;;;0.40;0.40;;;;;;;;;;4933745;29;20103;-66
2022/07/11 10:12:16;;;;;;;1.02;0.60;;;;;;;;;;4932352;29;20056;-64
2022/07/11 10:14:44;;;;;;;1.05;0.70;;;;;;;;;;4931897;29;20135;-65
2022/07/11 10:17:10;;;;;;;;;;;;;;;;;;4932599;29;20092;-64
2022/07/11 10:19:40;;;;;;;0.43;0.40;;;;;;;;;;4932021;29;19951;-64
2022/07/11 10:22:16;;;;;;;0.50;0.50;;;;;;;;;;4931869;29;20055;-64
2022/07/11 10:24:50;;;;;;;0.80;0.50;;;;;;;;;;4931581;29;20119;-64
2022/07/11 10:27:22;;;;;;;0.40;0.40;;;;;;;;;;4931671;29;20048;-64
2022/07/11 10:29:50;;;;;;;0.63;0.50;;;;;;;;;;4931892;29;20071;-64
2022/07/11 10:32:19;;;;;;;0.50;0.45;;;;;;;;;;4931502;29;20055;-64
2022/07/11 10:34:47;;;;;;;0.90;0.55;;;;;;;;;;4931347;29;20056;-64
2022/07/11 10:37:14;;;;;;;0.95;0.50;;;;;;;;;;4931711;29;20070;-64
2022/07/11 10:39:57;;;;;;;1.77;0.70;;;;;;;;;;4931951;29;20063;-64
2022/07/11 10:42:39;;;;;;;1.15;0.47;;;;;;;;;;4931544;29;20048;-65
2022/07/11 10:45:08;;;;;;;0.63;0.47;;;;;;;;;;4931499;29;20059;-65
2022/07/11 10:47:38;;;;;;;0.73;0.65;;;;;;;;;;4931680;29;20055;-64
2022/07/11 10:50:12;;;;;;;1.58;0.45;;;;;;;;;;4931423;29;20069;-65
2022/07/11 10:52:40;;;;;;;1.55;0.77;;;;;;;;;;4931400;29;20048;-65
2022/07/11 10:55:14;;;;;;;1.42;0.80;;;;;;;;;;4931102;29;20062;-64
2022/07/11 10:57:45;;;;;;;1.67;0.80;;;;;;;;;;4930984;29;20058;-65
2022/07/11 11:00:14;;;;;;;0.60;0.60;;;;;;;;;;4930996;29;20063;-64
2022/07/11 11:02:56;;;;;;;0.75;0.50;;;;;;;;;;4930305;23;20055;-65
2022/07/11 11:05:48;;;;;;;1.35;0.57;;;;;;;;;;4942711;28;20053;-65
2022/07/11 11:08:36;;;;;;;0.75;0.70;;;;;;;;;;4936770;29;20051;-65
2022/07/11 11:11:03;;;;;;;1.42;0.68;;;;;;;;;;4946880;29;20166;-64
2022/07/11 11:13:31;;;;;;;0.55;0.55;;;;;;;;;;4950767;29;20075;-65
2022/07/11 11:15:58;;;;;;;1.35;0.50;;;;;;;;;;4950220;29;20106;-65
2022/07/11 11:18:36;;;;;;;0.88;0.40;;;;;;;;;;4950426;29;20051;-64
2022/07/11 11:21:16;;;;;;;1.08;0.70;;;;;;;;;;4950480;29;20055;-65
2022/07/11 11:23:44;;;;;;;1.75;0.70;;;;;;;;;;4950044;29;20083;-67
2022/07/11 11:26:13;;;;;;;1.15;0.50;;;;;;;;;;4949764;29;20078;-64
2022/07/11 11:28:56;;;;;;;0.60;0.40;;;;;;;;;;4950041;29;20063;-65
2022/07/11 11:31:22;;;;;;;0.50;0.50;;;;;;;;;;4950496;29;20054;-65
2022/07/11 11:33:49;;;;;;;1.05;0.60;;;;;;;;;;4950415;29;20130;-65
2022/07/11 11:36:17;;;;;;;4.50;1.25;;;;;;;;;;4943814;29;20057;-65
2022/07/11 11:38:44;;;;;;;0.75;0.60;;;;;;;;;;4950586;29;20051;-64
2022/07/11 11:41:14;;;;;;;1.33;0.55;;;;;;;;;;4949930;29;20055;-64
2022/07/11 11:43:44;;;;;;;0.77;0.60;;;;;;;;;;4949949;29;20146;-64
2022/07/11 11:46:13;;;;;;;3.35;0.85;;;;;;;;;;4947694;28;20078;-65
2022/07/11 11:48:45;;;;;;;1.45;0.50;;;;;;;;;;4949712;28;20062;-65
2022/07/11 11:51:12;;;;;;;0.50;0.45;;;;;;;;;;4949178;28;20098;-65
2022/07/11 11:53:40;;;;;;;0.47;0.43;;;;;;;;;;4949857;28;20086;-65
2022/07/11 11:56:13;;;;;;;0.40;0.40;;;;;;;;;;4948935;28;20075;-64
2022/07/11 11:58:40;;;;;;;1.20;0.82;;;;;;;;;;4949739;29;20055;-65
2022/07/11 12:01:07;;;;;;;0.57;0.40;;;;;;;;;;4957242;23;20101;-66
2022/07/11 12:03:47;;;;;;;0.85;0.47;;;;;;;;;;4935351;28;20069;-65
2022/07/11 12:06:14;;;;;;;0.40;0.40;;;;;;;;;;4938386;29;20063;-66
2022/07/11 12:08:41;;;;;;;1.58;0.73;;;;;;;;;;4933388;29;20055;-66
2022/07/11 12:11:12;;;;;;;0.45;0.45;;;;;;;;;;4933372;29;20065;-66
2022/07/11 12:13:38;;;;;;;1.02;0.68;;;;;;;;;;4933622;29;20063;-65
2022/07/11 12:18:56;;;;;;;0.85;0.70;;;;;;;;;;4933134;29;20110;-66
2022/07/11 12:21:24;;;;;;;0.80;0.70;;;;;;;;;;4932797;29;20055;-65
2022/07/11 12:23:51;;;;;;;;;;;;;;;;;;4933881;29;20062;-66
2022/07/11 12:26:20;;;;;;;0.30;0.30;;;;;;;;;;4933051;29;19954;-66
2022/07/11 12:29:03;;;;;;;1.40;0.70;;;;;;;;;;4948789;28;20126;-66
2022/07/11 12:31:42;;;;;;;8.40;0.65;;;;;;;;;;4932663;29;20059;-65
2022/07/11 12:34:08;;;;;;;0.40;0.40;;;;;;;;;;4932864;29;20062;-65
2022/07/11 12:36:35;;;;;;;1.67;0.70;;;;;;;;;;4933027;29;20059;-65
2022/07/11 12:39:02;;;;;;;0.40;0.40;;;;;;;;;;4933208;29;20051;-66
2022/07/11 12:41:30;;;;;;;0.40;0.40;;;;;;;;;;4933007;29;20059;-65
2022/07/11 12:46:42;;;;;;;0.55;0.50;;;;;;;;;;4930712;28;20051;-65
2022/07/11 12:49:09;;;;;;;0.77;0.40;;;;;;;;;;4948855;28;20085;-66
2022/07/11 12:51:39;;;;;;;3.40;0.80;;;;;;;;;;4932282;28;20051;-65
2022/07/11 12:54:06;;;;;;;0.50;0.50;;;;;;;;;;4932821;28;20146;-65
2022/07/11 12:56:34;;;;;;;0.40;0.40;;;;;;;;;;4948484;28;20055;-65
2022/07/11 12:59:01;;;;;;;0.60;0.50;;;;;;;;;;4933554;28;20079;-68
2022/07/11 13:01:27;;;;;;;2.97;0.50;;;;;;;;;;4932041;28;20059;-65
2022/07/11 13:03:55;;;;;;;0.80;0.43;;;;;;;;;;4933019;29;20114;-66
2022/07/11 13:08:42;;;;;;;0.88;0.43;;;;;;;;;;4932502;29;20051;-66
2022/07/11 13:09:09;;;;;;;0.60;0.40;;;;;;;;;;4932199;29;20138;-66
2022/07/11 13:11:35;;;;;;;0.98;0.50;;;;;;;;;;4932237;29;20134;-66
2022/07/11 13:14:02;;;;;;;1.17;0.60;;;;;;;;;;4932491;29;20129;-65
2022/07/11 13:16:29;;;;;;;0.52;0.45;;;;;;;;;;4932077;29;20079;-65
2022/07/11 13:18:58;;;;;;;4.78;0.70;;;;;;;;;;4948196;28;20077;-66
2022/07/11 13:21:26;;;;;;;0.90;0.60;;;;;;;;;;4932502;29;20142;-65
2022/07/11 13:23:53;;;;;;;2.13;0.90;;;;;;;;;;4932299;29;20070;-66
2022/07/11 13:26:20;;;;;;;4.18;0.80;;;;;;;;;;4931956;29;20079;-66
2022/07/11 13:28:46;;;;;;;0.93;0.65;;;;;;;;;;4932291;29;20075;-66
2022/07/11 13:31:13;;;;;;;0.88;0.50;;;;;;;;;;4932342;29;20061;-66
2022/07/11 13:33:41;;;;;;;0.50;0.50;;;;;;;;;;4932485;29;20062;-66
2022/07/11 13:36:09;;;;;;;1.05;0.40;;;;;;;;;;4932633;29;20055;-66
2022/07/11 13:38:36;;;;;;;1.00;0.40;;;;;;;;;;4948166;28;20066;-66
2022/07/11 13:41:02;;;;;;;2.15;0.40;;;;;;;;;;4931843;29;20172;-66
2022/07/11 13:43:30;;;;;;;0.47;0.40;;;;;;;;;;4932728;29;20059;-66
2022/07/11 13:45:56;;;;;;;0.35;0.35;;;;;;;;;;4931944;29;20079;-66
2022/07/11 13:48:23;;;;;;;0.50;0.50;;;;;;;;;;4932031;29;20059;-66
2022/07/11 13:50:50;;;;;;;1.20;0.40;;;;;;;;;;4932262;29;20063;-66
2022/07/11 13:53:18;;;;;;;2.05;0.63;;;;;;;;;;4932816;29;20084;-66
2022/07/11 13:55:45;;;;;;;0.40;0.40;;;;;;;;;;4948420;28;20055;-65
2022/07/11 13:58:25;;;;;;;4.10;0.50;;;;;;;;;;4932145;29;20083;-65
2022/07/11 14:00:52;;;;;;;0.50;0.50;;;;;;;;;;4931684;29;20051;-66
2022/07/11 14:03:29;;;;;;;0.77;0.68;;;;;;;;;;4940648;23;20063;-65
2022/07/11 14:06:04;;;;;;;2.33;0.60;;;;;;;;;;4948017;28;20055;-65
2022/07/11 14:08:36;;;;;;;1.25;0.60;;;;;;;;;;4949130;28;20051;-65
2022/07/11 14:11:03;;;;;;;2.00;0.73;;;;;;;;;;4951638;28;20058;-66
2022/07/11 14:13:30;;;;;;;0.98;0.50;;;;;;;;;;4951690;28;20054;-65
2022/07/11 14:15:57;;;;;;;0.52;0.32;;;;;;;;;;4950909;28;20062;-66
2022/07/11 14:18:24;;;;;;;1.10;0.60;;;;;;;;;;4949781;28;20066;-66
2022/07/11 14:20:51;;;;;;;0.40;0.40;;;;;;;;;;4951930;28;20061;-65
2022/07/11 14:23:17;;;;;;;1.35;0.70;;;;;;;;;;4951810;28;20102;-66
2022/07/11 14:25:47;;;;;;;0.65;0.45;;;;;;;;;;4951106;28;20047;-66
2022/07/11 14:28:14;;;;;;;1.20;0.50;;;;;;;;;;4950919;28;20055;-66
2022/07/11 14:30:40;;;;;;;1.58;0.40;;;;;;;;;;4951186;28;20069;-65
2022/07/11 14:33:07;;;;;;;0.30;0.30;;;;;;;;;;4951651;28;20050;-66
2022/07/11 14:35:34;;;;;;;1.42;0.40;;;;;;;;;;4951880;28;20056;-65
2022/07/11 14:38:00;;;;;;;0.40;0.40;;;;;;;;;;4951261;28;20055;-65
2022/07/11 14:40:27;;;;;;;0.43;0.40;;;;;;;;;;4951242;28;20051;-66
2022/07/11 14:42:55;;;;;;;0.60;0.45;;;;;;;;;;4944466;28;20047;-66
2022/07/11 14:45:22;;;;;;;2.83;0.50;;;;;;;;;;4950617;28;20051;-66
2022/07/11 14:47:49;;;;;;;2.92;0.80;;;;;;;;;;4951232;28;20047;-66
2022/07/11 14:50:15;;;;;;;0.85;0.68;;;;;;;;;;4951215;28;20069;-66
2022/07/11 14:52:43;;;;;;;0.70;0.40;;;;;;;;;;4950646;28;20051;-66
2022/07/11 14:55:10;;;;;;;0.40;0.40;;;;;;;;;;4950402;28;20077;-66
2022/07/11 14:57:37;;;;;;;0.35;0.20;;;;;;;;;;4950044;28;20062;-66
2022/07/11 15:00:06;;;;;;;0.45;0.43;;;;;;;;;;4934620;29;20083;-66
2022/07/11 15:05:22;;;;;;;0.40;0.40;;;;;;;;;;4933686;28;20051;-67
2022/07/11 15:13:16;;;;;;;0.40;0.40;;;;;;;;;;4950326;28;20062;-66
2022/07/11 15:15:47;;;;;;;3.03;0.60;;;;;;;;;;4950463;28;20047;-66